Fircrest, WA

3:04 AM PST on January 21, 2017 (GMT -0800)
Cascade | | Change Station

Elev 368 ft 47.24 °N, 122.53 °W | Updated 5 seconds ago

Mostly Cloudy
Mostly Cloudy
43.2 °F
Feels Like 43 °F
N
0.9
Wind Variable Wind from SSW
Gusts 3.1 mph

Today
High -- | Low -- °F
--% Chance of Precip.
Yesterday
High -- | Low -- °F
Precip. -- in
Pressure 29.26 in
Visibility 9.0 miles
Clouds Mostly Cloudy 100 ft
Mostly Cloudy 4200 ft
Overcast 5500 ft
Windchill 43 °F
Dew Point 41 °F
Humidity 92%
Rainfall 0.00 in
Snow Depth Not available.
7:47 AM 4:56 PM
Waning Crescent, 36% visible
METAR KTIW 211053Z AUTO 19004KT 9SM BKN001 BKN042 OVC055 04/04 A2925 RMK AO2 RAB19E29 SLP907 P0000 T00440044
Pressure 29.26 in
Visibility 9.0 miles
Clouds Mostly Cloudy 100 ft
Mostly Cloudy 4200 ft
Overcast 5500 ft
Windchill 43 °F
Dew Point 41 °F
Humidity 92%
Rainfall 0.00 in
Snow Depth Not available.
7:47 AM 4:56 PM
Waning Crescent, 36% visible
METAR KTIW 211053Z AUTO 19004KT 9SM BKN001 BKN042 OVC055 04/04 A2925 RMK AO2 RAB19E29 SLP907 P0000 T00440044

Get Your Daily Forecast Email!

Thanks for signing up!

Be on the lookout for a verification email in your inbox.

You'll start receiving the daily forecast at 8 AM.

×

10-Day Weather Forecast

Almanac

Astronomy

Jan. 21, 2017 Rise Set
Actual Time
Civil Twilight
Nautical Twilight
Astronomical Twilight
Moon
Length of Visible Light
Length of Day
Tomorrow will be .
, % of the Moon is Illuminated

Today's Extremes

State Highs State Lows

Community

WunderPhotos

Upload Photos

1,962,540 photos uploaded!

WunderBlog® & News

Nearby

Air Quality

  Air Quality AQ Index Pollutant
Not available.

Snow Depth

Station Depth Elevation

Earthquake Activity

City Distance Mag. Time & Date
Minimum magnitude displayed is 2.5.

Coastal Water Temperatures

Place Temperature

Stations

Nearby Weather Stations

Station Location Temp. Windchill Dew Point Humidity Wind Precip. Elev Updated Type
                   

Watches & Warnings

There are currently no watches in effect.